RYR65T LIRA-EPPO
Flight info
| Callsign | RYR65T |
|---|---|
| Flight time | 1h 36m |
| Altitude | 34000 |
| Route | SOVAN DCT AMTEL DCT MALUG/N0447F350 DCT PINQI DCT ODLIV DCT RASAN DCT DIMEX P733 AKAPI |
| Aircraft | B738/M-SDE2E3FGHIRWXY/LB1 |
Departure
| Time | 2026-05-06 12:57 |
|---|---|
| Airport | Ciampino–G. B. Pastine International Airport (LIRA) |
Arrival
| Time | 2026-05-06 14:34 |
|---|---|
| Airport | Poznań-Ławica Airport (EPPO) |
| Time | Latitude | Longitude | Altitude | Speed | Heading |
|---|---|---|---|---|---|
| 2026-05-06 12:32 | 41.80095 | 12.59073 | 378 ft | 0 kts | 122° |
| 2026-05-06 12:49 | 41.80096 | 12.59072 | 378 ft | 1 kts | 122° |
| 2026-05-06 12:49 | 41.80104 | 12.59055 | 378 ft | 3 kts | 124° |
| 2026-05-06 12:50 | 41.80115 | 12.59032 | 376 ft | 3 kts | 122° |
| 2026-05-06 12:50 | 41.80125 | 12.59009 | 375 ft | 3 kts | 105° |
| 2026-05-06 12:50 | 41.80126 | 12.58988 | 375 ft | 3 kts | 60° |
| 2026-05-06 12:50 | 41.80124 | 12.58983 | 374 ft | 1 kts | 52° |
| 2026-05-06 12:53 | 41.80124 | 12.58984 | 374 ft | 1 kts | 52° |
| 2026-05-06 12:53 | 41.80141 | 12.59013 | 375 ft | 7 kts | 53° |
| 2026-05-06 12:53 | 41.80170 | 12.59064 | 375 ft | 7 kts | 53° |
| 2026-05-06 12:54 | 41.80207 | 12.59092 | 375 ft | 7 kts | 352° |
| 2026-05-06 12:54 | 41.80269 | 12.59051 | 371 ft | 15 kts | 332° |
| 2026-05-06 12:54 | 41.80377 | 12.58977 | 368 ft | 18 kts | 333° |
| 2026-05-06 12:54 | 41.80484 | 12.58903 | 361 ft | 17 kts | 333° |
| 2026-05-06 12:55 | 41.80593 | 12.58827 | 360 ft | 17 kts | 333° |
| 2026-05-06 12:55 | 41.80687 | 12.58764 | 355 ft | 10 kts | 333° |
| 2026-05-06 12:55 | 41.80736 | 12.58783 | 358 ft | 8 kts | 53° |
| 2026-05-06 12:55 | 41.80763 | 12.58853 | 359 ft | 8 kts | 64° |
| 2026-05-06 12:56 | 41.80760 | 12.58917 | 361 ft | 7 kts | 129° |
| 2026-05-06 12:56 | 41.80720 | 12.58946 | 358 ft | 7 kts | 154° |
| 2026-05-06 12:56 | 41.80613 | 12.59019 | 362 ft | 47 kts | 153° |
| 2026-05-06 12:56 | 41.80080 | 12.59385 | 388 ft | 122 kts | 153° |
| 2026-05-06 12:57 | 41.79135 | 12.60038 | 541 ft | 174 kts | 158° |
| 2026-05-06 12:57 | 41.78007 | 12.60752 | 1431 ft | 185 kts | 162° |
| 2026-05-06 12:57 | 41.76696 | 12.60887 | 2170 ft | 194 kts | 190° |
| 2026-05-06 12:57 | 41.75465 | 12.60183 | 2930 ft | 193 kts | 213° |
| 2026-05-06 12:58 | 41.74549 | 12.58869 | 3649 ft | 195 kts | 236° |
| 2026-05-06 12:58 | 41.74109 | 12.57164 | 4364 ft | 197 kts | 260° |
| 2026-05-06 12:58 | 41.74216 | 12.55215 | 4276 ft | 235 kts | 285° |
| 2026-05-06 12:58 | 41.75148 | 12.53431 | 4561 ft | 239 kts | 320° |
| 2026-05-06 12:59 | 41.76647 | 12.52509 | 5168 ft | 243 kts | 342° |
| 2026-05-06 12:59 | 41.78315 | 12.51917 | 5746 ft | 252 kts | 341° |
| 2026-05-06 12:59 | 41.80025 | 12.51298 | 6400 ft | 258 kts | 341° |
| 2026-05-06 12:59 | 41.81775 | 12.50651 | 7025 ft | 264 kts | 340° |
| 2026-05-06 13:00 | 41.83560 | 12.49939 | 7618 ft | 274 kts | 339° |
| 2026-05-06 13:00 | 41.85433 | 12.49159 | 8056 ft | 284 kts | 336° |
| 2026-05-06 13:00 | 41.87281 | 12.48163 | 8712 ft | 290 kts | 332° |
| 2026-05-06 13:00 | 41.89140 | 12.47034 | 9371 ft | 297 kts | 331° |
| 2026-05-06 13:01 | 41.91010 | 12.45870 | 10016 ft | 304 kts | 331° |
| 2026-05-06 13:01 | 41.92948 | 12.44666 | 10623 ft | 310 kts | 331° |
| 2026-05-06 13:01 | 41.94928 | 12.43444 | 11235 ft | 316 kts | 332° |
| 2026-05-06 13:01 | 41.96946 | 12.42206 | 11863 ft | 321 kts | 332° |
| 2026-05-06 13:02 | 41.98999 | 12.40954 | 12538 ft | 327 kts | 332° |
| 2026-05-06 13:02 | 42.01092 | 12.39681 | 13165 ft | 333 kts | 332° |
| 2026-05-06 13:02 | 42.03217 | 12.38391 | 13820 ft | 337 kts | 332° |
| 2026-05-06 13:02 | 42.05378 | 12.37080 | 14251 ft | 348 kts | 332° |
| 2026-05-06 13:03 | 42.07649 | 12.35698 | 14391 ft | 368 kts | 332° |
| 2026-05-06 13:03 | 42.09984 | 12.34279 | 14758 ft | 377 kts | 332° |
| 2026-05-06 13:03 | 42.12394 | 12.32819 | 15316 ft | 382 kts | 332° |
| 2026-05-06 13:03 | 42.14820 | 12.31349 | 15910 ft | 385 kts | 332° |
| 2026-05-06 13:04 | 42.17274 | 12.29861 | 16472 ft | 389 kts | 332° |
| 2026-05-06 13:04 | 42.19759 | 12.28352 | 17015 ft | 393 kts | 332° |
| 2026-05-06 13:04 | 42.22261 | 12.26831 | 17538 ft | 398 kts | 332° |
| 2026-05-06 13:04 | 42.24797 | 12.25286 | 18091 ft | 402 kts | 332° |
| 2026-05-06 13:05 | 42.27356 | 12.23727 | 18637 ft | 405 kts | 332° |
| 2026-05-06 13:05 | 42.29929 | 12.22158 | 19199 ft | 407 kts | 331° |
| 2026-05-06 13:05 | 42.32479 | 12.20602 | 19753 ft | 408 kts | 331° |
| 2026-05-06 13:05 | 42.35075 | 12.19015 | 20300 ft | 410 kts | 330° |
| 2026-05-06 13:06 | 42.37682 | 12.17420 | 20819 ft | 413 kts | 330° |
| 2026-05-06 13:06 | 42.40313 | 12.15809 | 21291 ft | 417 kts | 330° |
| 2026-05-06 13:06 | 42.42960 | 12.14186 | 21814 ft | 419 kts | 330° |
| 2026-05-06 13:06 | 42.45622 | 12.12553 | 22315 ft | 421 kts | 330° |
| 2026-05-06 13:07 | 42.48300 | 12.10908 | 22812 ft | 424 kts | 329° |
| 2026-05-06 13:07 | 42.50996 | 12.09251 | 23285 ft | 427 kts | 329° |
| 2026-05-06 13:07 | 42.53673 | 12.07604 | 23705 ft | 430 kts | 329° |
| 2026-05-06 13:07 | 42.56404 | 12.05922 | 24070 ft | 432 kts | 329° |
| 2026-05-06 13:08 | 42.59147 | 12.04231 | 24440 ft | 435 kts | 329° |
| 2026-05-06 13:08 | 42.61910 | 12.02526 | 24814 ft | 437 kts | 329° |
| 2026-05-06 13:08 | 42.64690 | 12.00810 | 25175 ft | 440 kts | 329° |
| 2026-05-06 13:08 | 42.67486 | 11.99082 | 25529 ft | 443 kts | 329° |
| 2026-05-06 13:09 | 42.70297 | 11.97342 | 25873 ft | 445 kts | 329° |
| 2026-05-06 13:09 | 42.73124 | 11.95590 | 26208 ft | 448 kts | 328° |
| 2026-05-06 13:09 | 42.75968 | 11.93827 | 26542 ft | 451 kts | 328° |
| 2026-05-06 13:09 | 42.78787 | 11.92078 | 26859 ft | 453 kts | 328° |
| 2026-05-06 13:10 | 42.81667 | 11.90288 | 27148 ft | 456 kts | 328° |
| 2026-05-06 13:10 | 42.84544 | 11.88459 | 27539 ft | 455 kts | 326° |
| 2026-05-06 13:10 | 42.87362 | 11.86483 | 27906 ft | 455 kts | 324° |
| 2026-05-06 13:10 | 42.90145 | 11.84428 | 28197 ft | 457 kts | 324° |
| 2026-05-06 13:11 | 42.92944 | 11.82329 | 28492 ft | 459 kts | 323° |
| 2026-05-06 13:11 | 42.95745 | 11.80233 | 28797 ft | 461 kts | 324° |
| 2026-05-06 13:11 | 42.98575 | 11.78133 | 29102 ft | 463 kts | 324° |
| 2026-05-06 13:11 | 43.01418 | 11.76038 | 29420 ft | 465 kts | 324° |
| 2026-05-06 13:12 | 43.04227 | 11.73975 | 29848 ft | 464 kts | 324° |
| 2026-05-06 13:12 | 43.07063 | 11.71896 | 30296 ft | 461 kts | 324° |
| 2026-05-06 13:12 | 43.09881 | 11.69827 | 30696 ft | 459 kts | 324° |
| 2026-05-06 13:12 | 43.12690 | 11.67759 | 31028 ft | 458 kts | 324° |
| 2026-05-06 13:13 | 43.15498 | 11.65687 | 31326 ft | 458 kts | 324° |
| 2026-05-06 13:13 | 43.18317 | 11.63639 | 31635 ft | 461 kts | 327° |
| 2026-05-06 13:13 | 43.21383 | 11.62184 | 31926 ft | 474 kts | 341° |
| 2026-05-06 13:13 | 43.24695 | 11.61677 | 32274 ft | 485 kts | 354° |
| 2026-05-06 13:14 | 43.28077 | 11.62167 | 32611 ft | 492 kts | 5° |
| 2026-05-06 13:14 | 43.31390 | 11.63047 | 32949 ft | 491 kts | 6° |
| 2026-05-06 13:14 | 43.34734 | 11.64017 | 33235 ft | 491 kts | 7° |
| 2026-05-06 13:14 | 43.38075 | 11.65003 | 33516 ft | 491 kts | 7° |
| 2026-05-06 13:15 | 43.41412 | 11.65973 | 33849 ft | 489 kts | 7° |
| 2026-05-06 13:15 | 43.48097 | 11.67844 | 33931 ft | 490 kts | 6° |
| 2026-05-06 13:16 | 43.54758 | 11.69651 | 33933 ft | 486 kts | 6° |
| 2026-05-06 13:16 | 43.61374 | 11.71430 | 33922 ft | 484 kts | 6° |
| 2026-05-06 13:17 | 43.67928 | 11.73198 | 33917 ft | 482 kts | 6° |
| 2026-05-06 13:17 | 43.74506 | 11.74981 | 33927 ft | 481 kts | 7° |
| 2026-05-06 13:18 | 43.81077 | 11.76767 | 33937 ft | 482 kts | 7° |
| 2026-05-06 13:18 | 43.87666 | 11.78561 | 33925 ft | 483 kts | 7° |
| 2026-05-06 13:19 | 43.94220 | 11.80350 | 33924 ft | 484 kts | 7° |
| 2026-05-06 13:19 | 44.00840 | 11.82162 | 33927 ft | 487 kts | 7° |
| 2026-05-06 13:20 | 44.07553 | 11.84000 | 33922 ft | 496 kts | 7° |
| 2026-05-06 13:20 | 44.14377 | 11.85875 | 33914 ft | 503 kts | 7° |
| 2026-05-06 13:21 | 44.21246 | 11.87770 | 33916 ft | 504 kts | 7° |
| 2026-05-06 13:21 | 44.28092 | 11.89664 | 33910 ft | 506 kts | 7° |
| 2026-05-06 13:22 | 44.35000 | 11.91579 | 33908 ft | 507 kts | 7° |
| 2026-05-06 13:22 | 44.41915 | 11.93499 | 33898 ft | 506 kts | 7° |
| 2026-05-06 13:23 | 44.48820 | 11.95422 | 33895 ft | 506 kts | 7° |
| 2026-05-06 13:23 | 44.55663 | 11.97331 | 33895 ft | 504 kts | 7° |
| 2026-05-06 13:24 | 44.62541 | 11.99255 | 33898 ft | 503 kts | 7° |
| 2026-05-06 13:24 | 44.69414 | 12.01181 | 33899 ft | 503 kts | 7° |
| 2026-05-06 13:25 | 44.76281 | 12.03110 | 33907 ft | 503 kts | 7° |
| 2026-05-06 13:25 | 44.83107 | 12.05032 | 33908 ft | 504 kts | 7° |
| 2026-05-06 13:26 | 44.89984 | 12.06974 | 33895 ft | 504 kts | 7° |
| 2026-05-06 13:26 | 44.96847 | 12.08917 | 33903 ft | 503 kts | 7° |
| 2026-05-06 13:27 | 45.03713 | 12.10865 | 33902 ft | 503 kts | 7° |
| 2026-05-06 13:27 | 45.10525 | 12.12803 | 33905 ft | 503 kts | 7° |
| 2026-05-06 13:28 | 45.17378 | 12.14757 | 33908 ft | 503 kts | 7° |
| 2026-05-06 13:28 | 45.24237 | 12.16717 | 33914 ft | 503 kts | 7° |
| 2026-05-06 13:29 | 45.31115 | 12.18687 | 33917 ft | 505 kts | 7° |
| 2026-05-06 13:29 | 45.38016 | 12.20668 | 33908 ft | 509 kts | 7° |
| 2026-05-06 13:30 | 45.44925 | 12.22658 | 33958 ft | 511 kts | 7° |
| 2026-05-06 13:30 | 45.51935 | 12.24680 | 33901 ft | 515 kts | 7° |
| 2026-05-06 13:31 | 45.58924 | 12.26706 | 33904 ft | 512 kts | 7° |
| 2026-05-06 13:31 | 45.65887 | 12.28729 | 33920 ft | 510 kts | 7° |
| 2026-05-06 13:32 | 45.72840 | 12.30750 | 33921 ft | 509 kts | 7° |
| 2026-05-06 13:32 | 45.79738 | 12.32761 | 33911 ft | 509 kts | 7° |
| 2026-05-06 13:33 | 45.86690 | 12.34793 | 33903 ft | 512 kts | 7° |
| 2026-05-06 13:33 | 45.93659 | 12.36836 | 33930 ft | 511 kts | 7° |
| 2026-05-06 13:34 | 46.00635 | 12.38886 | 33940 ft | 511 kts | 7° |
| 2026-05-06 13:34 | 46.07565 | 12.40928 | 33937 ft | 511 kts | 7° |
| 2026-05-06 13:35 | 46.14542 | 12.42989 | 33932 ft | 512 kts | 7° |
| 2026-05-06 13:35 | 46.21532 | 12.45059 | 33904 ft | 513 kts | 7° |
| 2026-05-06 13:36 | 46.28516 | 12.47132 | 33924 ft | 511 kts | 7° |
| 2026-05-06 13:36 | 46.35442 | 12.49197 | 33907 ft | 513 kts | 7° |
| 2026-05-06 13:37 | 46.42432 | 12.51284 | 33874 ft | 513 kts | 7° |
| 2026-05-06 13:37 | 46.49397 | 12.53372 | 33896 ft | 511 kts | 7° |
| 2026-05-06 13:38 | 46.56371 | 12.55460 | 33900 ft | 512 kts | 7° |
| 2026-05-06 13:38 | 46.63364 | 12.57564 | 33892 ft | 513 kts | 7° |
| 2026-05-06 13:39 | 46.70307 | 12.59761 | 33879 ft | 517 kts | 12° |
| 2026-05-06 13:39 | 46.77002 | 12.63734 | 33873 ft | 521 kts | 22° |
| 2026-05-06 13:40 | 46.83541 | 12.68285 | 33874 ft | 522 kts | 22° |
| 2026-05-06 13:40 | 46.90121 | 12.72853 | 33849 ft | 523 kts | 22° |
| 2026-05-06 13:41 | 46.96704 | 12.77338 | 33846 ft | 521 kts | 21° |
| 2026-05-06 13:41 | 47.03235 | 12.81755 | 33820 ft | 520 kts | 21° |
| 2026-05-06 13:42 | 47.09797 | 12.86208 | 33807 ft | 520 kts | 21° |
| 2026-05-06 13:42 | 47.16352 | 12.90674 | 33813 ft | 519 kts | 21° |
| 2026-05-06 13:43 | 47.22862 | 12.95123 | 33809 ft | 519 kts | 21° |
| 2026-05-06 13:43 | 47.29401 | 12.99605 | 33815 ft | 518 kts | 21° |
| 2026-05-06 13:44 | 47.35961 | 13.04113 | 33809 ft | 523 kts | 21° |
| 2026-05-06 13:44 | 47.42606 | 13.08690 | 33776 ft | 528 kts | 21° |
| 2026-05-06 13:45 | 47.49258 | 13.13292 | 33773 ft | 527 kts | 21° |
| 2026-05-06 13:45 | 47.59211 | 13.20202 | 33741 ft | 526 kts | 21° |
| 2026-05-06 13:46 | 47.65802 | 13.24789 | 33732 ft | 522 kts | 21° |
| 2026-05-06 13:46 | 47.72372 | 13.29368 | 33723 ft | 521 kts | 21° |
| 2026-05-06 13:47 | 47.78898 | 13.33936 | 33715 ft | 523 kts | 21° |
| 2026-05-06 13:47 | 47.85467 | 13.38547 | 33751 ft | 522 kts | 21° |
| 2026-05-06 13:48 | 47.92045 | 13.43175 | 33747 ft | 523 kts | 21° |
| 2026-05-06 13:48 | 47.98629 | 13.47822 | 33748 ft | 524 kts | 21° |
| 2026-05-06 13:49 | 48.05225 | 13.52492 | 33740 ft | 525 kts | 21° |
| 2026-05-06 13:49 | 48.11795 | 13.57156 | 33748 ft | 527 kts | 22° |
| 2026-05-06 13:50 | 48.18423 | 13.61874 | 33758 ft | 528 kts | 21° |
| 2026-05-06 13:50 | 48.25059 | 13.66612 | 33756 ft | 528 kts | 21° |
| 2026-05-06 13:51 | 48.31654 | 13.71335 | 33747 ft | 529 kts | 21° |
| 2026-05-06 13:51 | 48.38288 | 13.76099 | 33753 ft | 528 kts | 22° |
| 2026-05-06 13:52 | 48.44908 | 13.80867 | 33753 ft | 527 kts | 22° |
| 2026-05-06 13:52 | 48.51504 | 13.85632 | 33746 ft | 525 kts | 22° |
| 2026-05-06 13:53 | 48.58083 | 13.90398 | 33754 ft | 524 kts | 22° |
| 2026-05-06 13:53 | 48.64608 | 13.95137 | 33763 ft | 524 kts | 22° |
| 2026-05-06 13:54 | 48.71240 | 13.99573 | 33752 ft | 517 kts | 13° |
| 2026-05-06 13:54 | 48.78106 | 14.02723 | 33771 ft | 515 kts | 11° |
| 2026-05-06 13:55 | 48.84988 | 14.05697 | 33768 ft | 514 kts | 11° |
| 2026-05-06 13:55 | 48.91805 | 14.08735 | 33762 ft | 513 kts | 12° |
| 2026-05-06 13:56 | 48.98638 | 14.11864 | 33759 ft | 512 kts | 12° |
| 2026-05-06 13:56 | 49.05447 | 14.15015 | 33770 ft | 511 kts | 12° |
| 2026-05-06 13:57 | 49.12241 | 14.18165 | 33765 ft | 510 kts | 12° |
| 2026-05-06 13:57 | 49.18965 | 14.21286 | 33777 ft | 508 kts | 12° |
| 2026-05-06 13:58 | 49.25726 | 14.24431 | 33779 ft | 507 kts | 12° |
| 2026-05-06 13:58 | 49.32480 | 14.27581 | 33770 ft | 507 kts | 12° |
| 2026-05-06 13:59 | 49.39223 | 14.30736 | 33788 ft | 506 kts | 12° |
| 2026-05-06 13:59 | 49.45919 | 14.33878 | 33783 ft | 506 kts | 12° |
| 2026-05-06 14:00 | 49.52656 | 14.37048 | 33791 ft | 506 kts | 12° |
| 2026-05-06 14:00 | 49.59390 | 14.40226 | 33784 ft | 506 kts | 13° |
| 2026-05-06 14:01 | 49.66126 | 14.43415 | 33789 ft | 506 kts | 13° |
| 2026-05-06 14:01 | 49.72817 | 14.46591 | 33788 ft | 507 kts | 13° |
| 2026-05-06 14:02 | 49.79558 | 14.49800 | 33783 ft | 507 kts | 13° |
| 2026-05-06 14:02 | 49.86295 | 14.53017 | 33778 ft | 507 kts | 13° |
| 2026-05-06 14:03 | 49.93030 | 14.56242 | 33782 ft | 507 kts | 13° |
| 2026-05-06 14:03 | 49.99724 | 14.59457 | 33781 ft | 506 kts | 13° |
| 2026-05-06 14:04 | 50.06454 | 14.62699 | 33779 ft | 506 kts | 13° |
| 2026-05-06 14:04 | 50.13173 | 14.65945 | 33777 ft | 506 kts | 13° |
| 2026-05-06 14:05 | 50.19896 | 14.69202 | 33777 ft | 506 kts | 13° |
| 2026-05-06 14:05 | 50.26615 | 14.72468 | 33784 ft | 506 kts | 13° |
| 2026-05-06 14:06 | 50.33279 | 14.75716 | 33767 ft | 501 kts | 14° |
| 2026-05-06 14:06 | 50.39872 | 14.78943 | 33769 ft | 493 kts | 13° |
| 2026-05-06 14:07 | 50.46403 | 14.82142 | 33782 ft | 491 kts | 14° |
| 2026-05-06 14:07 | 50.52908 | 14.85339 | 33771 ft | 489 kts | 14° |
| 2026-05-06 14:08 | 50.59401 | 14.88541 | 33773 ft | 489 kts | 14° |
| 2026-05-06 14:08 | 50.62612 | 14.90126 | 33380 ft | 493 kts | 14° |
| 2026-05-06 14:08 | 50.65886 | 14.91745 | 32798 ft | 492 kts | 14° |
| 2026-05-06 14:09 | 50.69135 | 14.93357 | 32349 ft | 487 kts | 14° |
| 2026-05-06 14:09 | 50.72350 | 14.94955 | 31901 ft | 483 kts | 14° |
| 2026-05-06 14:09 | 50.75541 | 14.96543 | 31452 ft | 479 kts | 14° |
| 2026-05-06 14:09 | 50.78705 | 14.98121 | 30978 ft | 475 kts | 14° |
| 2026-05-06 14:10 | 50.81839 | 14.99683 | 30588 ft | 470 kts | 14° |
| 2026-05-06 14:10 | 50.84951 | 15.01234 | 30147 ft | 468 kts | 14° |
| 2026-05-06 14:10 | 50.88004 | 15.02759 | 29698 ft | 465 kts | 14° |
| 2026-05-06 14:10 | 50.91078 | 15.04296 | 29206 ft | 461 kts | 14° |
| 2026-05-06 14:11 | 50.94117 | 15.05820 | 28751 ft | 457 kts | 14° |
| 2026-05-06 14:11 | 50.97140 | 15.07343 | 28309 ft | 453 kts | 16° |
| 2026-05-06 14:11 | 51.00028 | 15.09309 | 27858 ft | 453 kts | 27° |
| 2026-05-06 14:11 | 51.02682 | 15.11961 | 27496 ft | 449 kts | 36° |
| 2026-05-06 14:12 | 51.05028 | 15.15180 | 27121 ft | 444 kts | 45° |
| 2026-05-06 14:12 | 51.07174 | 15.18689 | 26703 ft | 441 kts | 46° |
| 2026-05-06 14:12 | 51.09272 | 15.22226 | 26278 ft | 438 kts | 47° |
| 2026-05-06 14:12 | 51.11323 | 15.25703 | 25874 ft | 435 kts | 47° |
| 2026-05-06 14:13 | 51.13394 | 15.29200 | 25450 ft | 433 kts | 47° |
| 2026-05-06 14:13 | 51.15460 | 15.32668 | 25037 ft | 430 kts | 46° |
| 2026-05-06 14:13 | 51.17522 | 15.36111 | 24622 ft | 428 kts | 46° |
| 2026-05-06 14:13 | 51.19578 | 15.39535 | 24207 ft | 426 kts | 46° |
| 2026-05-06 14:14 | 51.21626 | 15.42943 | 23788 ft | 425 kts | 46° |
| 2026-05-06 14:14 | 51.23669 | 15.46344 | 23363 ft | 424 kts | 46° |
| 2026-05-06 14:14 | 51.25704 | 15.49735 | 22884 ft | 422 kts | 46° |
| 2026-05-06 14:14 | 51.27700 | 15.53066 | 22445 ft | 419 kts | 46° |
| 2026-05-06 14:15 | 51.29708 | 15.56422 | 22017 ft | 416 kts | 47° |
| 2026-05-06 14:15 | 51.31700 | 15.59757 | 21604 ft | 413 kts | 47° |
| 2026-05-06 14:15 | 51.33677 | 15.63071 | 21195 ft | 410 kts | 47° |
| 2026-05-06 14:15 | 51.35639 | 15.66364 | 20787 ft | 407 kts | 47° |
| 2026-05-06 14:16 | 51.37586 | 15.69637 | 20388 ft | 404 kts | 47° |
| 2026-05-06 14:16 | 51.39518 | 15.72889 | 19992 ft | 402 kts | 47° |
| 2026-05-06 14:16 | 51.41436 | 15.76122 | 19599 ft | 399 kts | 47° |
| 2026-05-06 14:16 | 51.43338 | 15.79332 | 19203 ft | 397 kts | 47° |
| 2026-05-06 14:17 | 51.45207 | 15.82490 | 18817 ft | 395 kts | 47° |
| 2026-05-06 14:17 | 51.47090 | 15.85676 | 18426 ft | 392 kts | 47° |
| 2026-05-06 14:17 | 51.48962 | 15.88849 | 18015 ft | 391 kts | 47° |
| 2026-05-06 14:17 | 51.50827 | 15.92012 | 17569 ft | 389 kts | 47° |
| 2026-05-06 14:18 | 51.52679 | 15.95159 | 17154 ft | 386 kts | 47° |
| 2026-05-06 14:18 | 51.54518 | 15.98286 | 16751 ft | 384 kts | 47° |
| 2026-05-06 14:18 | 51.56343 | 16.01394 | 16365 ft | 381 kts | 47° |
| 2026-05-06 14:18 | 51.58131 | 16.04441 | 15983 ft | 379 kts | 47° |
| 2026-05-06 14:19 | 51.59931 | 16.07514 | 15584 ft | 376 kts | 46° |
| 2026-05-06 14:19 | 51.61718 | 16.10567 | 15215 ft | 373 kts | 46° |
| 2026-05-06 14:19 | 51.63552 | 16.13504 | 14845 ft | 371 kts | 39° |
| 2026-05-06 14:19 | 51.65585 | 16.16003 | 14623 ft | 365 kts | 35° |
| 2026-05-06 14:20 | 51.67632 | 16.18393 | 14347 ft | 361 kts | 34° |
| 2026-05-06 14:20 | 51.69663 | 16.20749 | 13998 ft | 359 kts | 34° |
| 2026-05-06 14:20 | 51.71683 | 16.23103 | 13637 ft | 357 kts | 34° |
| 2026-05-06 14:20 | 51.73663 | 16.25427 | 13241 ft | 356 kts | 34° |
| 2026-05-06 14:21 | 51.75658 | 16.27782 | 12839 ft | 354 kts | 34° |
| 2026-05-06 14:21 | 51.77641 | 16.30132 | 12455 ft | 353 kts | 35° |
| 2026-05-06 14:21 | 51.79613 | 16.32476 | 12070 ft | 351 kts | 35° |
| 2026-05-06 14:21 | 51.81573 | 16.34811 | 11698 ft | 349 kts | 35° |
| 2026-05-06 14:22 | 51.83524 | 16.37137 | 11327 ft | 348 kts | 35° |
| 2026-05-06 14:22 | 51.85464 | 16.39454 | 10956 ft | 346 kts | 35° |
| 2026-05-06 14:22 | 51.87396 | 16.41762 | 10593 ft | 345 kts | 35° |
| 2026-05-06 14:22 | 51.89315 | 16.44057 | 10356 ft | 339 kts | 35° |
| 2026-05-06 14:23 | 51.91187 | 16.46301 | 10194 ft | 331 kts | 35° |
| 2026-05-06 14:23 | 51.92974 | 16.48509 | 10052 ft | 324 kts | 38° |
| 2026-05-06 14:23 | 51.94694 | 16.50817 | 9904 ft | 317 kts | 39° |
| 2026-05-06 14:23 | 51.96352 | 16.53106 | 9772 ft | 309 kts | 39° |
| 2026-05-06 14:24 | 51.97982 | 16.55367 | 9489 ft | 308 kts | 39° |
| 2026-05-06 14:24 | 51.99607 | 16.57616 | 9182 ft | 307 kts | 39° |
| 2026-05-06 14:24 | 52.01228 | 16.59855 | 8886 ft | 305 kts | 39° |
| 2026-05-06 14:24 | 52.02845 | 16.62085 | 8578 ft | 305 kts | 39° |
| 2026-05-06 14:25 | 52.04459 | 16.64308 | 8292 ft | 304 kts | 39° |
| 2026-05-06 14:25 | 52.06049 | 16.66497 | 7996 ft | 303 kts | 39° |
| 2026-05-06 14:25 | 52.07656 | 16.68710 | 7701 ft | 302 kts | 39° |
| 2026-05-06 14:25 | 52.09259 | 16.70919 | 7407 ft | 302 kts | 39° |
| 2026-05-06 14:26 | 52.10860 | 16.73125 | 7116 ft | 301 kts | 39° |
| 2026-05-06 14:26 | 52.12455 | 16.75326 | 6820 ft | 301 kts | 39° |
| 2026-05-06 14:26 | 52.14051 | 16.77530 | 6565 ft | 299 kts | 39° |
| 2026-05-06 14:26 | 52.15618 | 16.79698 | 6378 ft | 295 kts | 39° |
| 2026-05-06 14:27 | 52.17177 | 16.81855 | 6110 ft | 293 kts | 39° |
| 2026-05-06 14:27 | 52.18727 | 16.84002 | 5828 ft | 292 kts | 39° |
| 2026-05-06 14:27 | 52.20249 | 16.86112 | 5551 ft | 290 kts | 39° |
| 2026-05-06 14:27 | 52.21783 | 16.88240 | 5277 ft | 289 kts | 39° |
| 2026-05-06 14:28 | 52.23310 | 16.90360 | 5007 ft | 288 kts | 39° |
| 2026-05-06 14:28 | 52.24829 | 16.92472 | 4792 ft | 285 kts | 39° |
| 2026-05-06 14:28 | 52.26319 | 16.94546 | 4662 ft | 278 kts | 39° |
| 2026-05-06 14:28 | 52.27770 | 16.96569 | 4545 ft | 271 kts | 38° |
| 2026-05-06 14:29 | 52.29190 | 16.98548 | 4408 ft | 265 kts | 38° |
| 2026-05-06 14:29 | 52.30586 | 17.00494 | 4198 ft | 263 kts | 39° |
| 2026-05-06 14:29 | 52.31961 | 17.02413 | 3946 ft | 263 kts | 38° |
| 2026-05-06 14:29 | 52.33355 | 17.04332 | 3692 ft | 261 kts | 33° |
| 2026-05-06 14:30 | 52.34986 | 17.05351 | 3419 ft | 245 kts | 355° |
| 2026-05-06 14:30 | 52.36505 | 17.04632 | 3240 ft | 221 kts | 319° |
| 2026-05-06 14:30 | 52.37560 | 17.02911 | 3029 ft | 204 kts | 302° |
| 2026-05-06 14:30 | 52.38366 | 17.00995 | 2535 ft | 205 kts | 295° |
| 2026-05-06 14:31 | 52.38937 | 16.98920 | 2194 ft | 194 kts | 290° |
| 2026-05-06 14:31 | 52.39369 | 16.96947 | 1941 ft | 176 kts | 286° |
| 2026-05-06 14:31 | 52.39715 | 16.95136 | 1728 ft | 158 kts | 285° |
| 2026-05-06 14:31 | 52.40022 | 16.93520 | 1512 ft | 144 kts | 285° |
| 2026-05-06 14:32 | 52.40319 | 16.91960 | 1338 ft | 144 kts | 285° |
| 2026-05-06 14:32 | 52.40612 | 16.90425 | 1121 ft | 139 kts | 286° |
| 2026-05-06 14:32 | 52.40891 | 16.88905 | 933 ft | 139 kts | 285° |
| 2026-05-06 14:32 | 52.41187 | 16.87391 | 727 ft | 138 kts | 287° |
| 2026-05-06 14:33 | 52.41470 | 16.85910 | 533 ft | 136 kts | 288° |
| 2026-05-06 14:33 | 52.41760 | 16.84406 | 352 ft | 141 kts | 288° |
| 2026-05-06 14:33 | 52.42042 | 16.82944 | 285 ft | 117 kts | 288° |
| 2026-05-06 14:33 | 52.42222 | 16.82020 | 291 ft | 55 kts | 287° |
| 2026-05-06 14:34 | 52.42284 | 16.81695 | 287 ft | 17 kts | 286° |
| 2026-05-06 14:34 | 52.42298 | 16.81509 | 288 ft | 8 kts | 269° |
| 2026-05-06 14:34 | 52.42298 | 16.81487 | 288 ft | 10 kts | 269° |
| 2026-05-06 14:34 | 52.42289 | 16.81327 | 287 ft | 15 kts | 259° |
| 2026-05-06 14:35 | 52.42269 | 16.81185 | 289 ft | 12 kts | 254° |
| 2026-05-06 14:35 | 52.42218 | 16.81168 | 287 ft | 9 kts | 133° |
| 2026-05-06 14:35 | 52.42196 | 16.81261 | 290 ft | 9 kts | 108° |
| 2026-05-06 14:35 | 52.42173 | 16.81383 | 293 ft | 14 kts | 107° |
| 2026-05-06 14:36 | 52.42137 | 16.81569 | 287 ft | 17 kts | 108° |
| 2026-05-06 14:36 | 52.42099 | 16.81762 | 291 ft | 18 kts | 108° |
| 2026-05-06 14:36 | 52.42063 | 16.81949 | 287 ft | 17 kts | 108° |
| 2026-05-06 14:36 | 52.42029 | 16.82129 | 293 ft | 16 kts | 107° |
| 2026-05-06 14:37 | 52.41995 | 16.82303 | 287 ft | 16 kts | 107° |
| 2026-05-06 14:37 | 52.41963 | 16.82469 | 287 ft | 15 kts | 108° |
| 2026-05-06 14:37 | 52.41932 | 16.82629 | 287 ft | 14 kts | 108° |
| 2026-05-06 14:37 | 52.41912 | 16.82731 | 291 ft | 14 kts | 107° |
| 2026-05-06 14:38 | 52.41878 | 16.82905 | 290 ft | 6 kts | 116° |
| 2026-05-06 14:38 | 52.41845 | 16.82915 | 287 ft | 7 kts | 193° |
| 2026-05-06 14:38 | 52.41792 | 16.82887 | 287 ft | 8 kts | 198° |
| 2026-05-06 14:38 | 52.41738 | 16.82859 | 287 ft | 8 kts | 198° |
| 2026-05-06 14:39 | 52.41685 | 16.82843 | 287 ft | 8 kts | 166° |
| 2026-05-06 14:39 | 52.41656 | 16.82912 | 287 ft | 8 kts | 106° |
| 2026-05-06 14:39 | 52.41648 | 16.82967 | 287 ft | 7 kts | 103° |
| 2026-05-06 14:39 | 52.41633 | 16.82997 | 290 ft | 3 kts | 159° |
| 2026-05-06 14:40 | 52.41605 | 16.82997 | 287 ft | 4 kts | 191° |
| 2026-05-06 14:40 | 52.41586 | 16.82990 | 287 ft | 2 kts | 192° |
| 2026-05-06 14:40 | 52.41581 | 16.82988 | 287 ft | 0 kts | 192° |
| 2026-05-06 14:40 | 52.41578 | 16.82987 | 287 ft | 0 kts | 192° |